Irving South's Hourly Summary for Wednesday, July 11, 2018
Hour Temp
(f)
RH
(%)
Solar Rad.
(MJ/m2)
Rainfall
(in)
Wind
(mph)
7/11/2018 12:00 AM 75 92 0.01 0 0
7/11/2018 1:00 AM 75 93 0.01 0 0
7/11/2018 2:00 AM 75 93 0.01 0 0
7/11/2018 3:00 AM 74 92 0.01 0 0
7/11/2018 4:00 AM 74 92 0.01 0 0
7/11/2018 5:00 AM 74 91 0.01 0 0
7/11/2018 6:00 AM 74 90 0.01 0 0
7/11/2018 7:00 AM 74 88 0.02 0 0
7/11/2018 8:00 AM 75 84 0.19 0 0
7/11/2018 9:00 AM 77 79 0.5 0 0.02
7/11/2018 10:00 AM 80 69 1.25 0 0.67
7/11/2018 11:00 AM 84 60 2.8 0 1.08
7/11/2018 12:00 PM 87 54 2.4 0 0.31
7/11/2018 1:00 PM 90 48 2.14 0 0.22
7/11/2018 2:00 PM 92 40 2.66 0 0.68
7/11/2018 3:00 PM 93 41 3.3 0 1.98
7/11/2018 4:00 PM 90 44 3.28 0 4.9
7/11/2018 5:00 PM 93 40 2.57 0 2.84
7/11/2018 6:00 PM 93 39 1.42 0 2.75
7/11/2018 7:00 PM 94 37 1.14 0 1.44
7/11/2018 8:00 PM 93 39 0.51 0 0.28
7/11/2018 9:00 PM 89 42 0.07 0 0.88
7/11/2018 10:00 PM 86 54 0 0 0.65
7/11/2018 11:00 PM 84 58 0 0 0.72
Data Summary 83 64 24.32 0.00 0.81